createdAt,value
2023-05-10T00:01:33.479Z,93623.72
2023-05-10T00:04:00.161Z,93626.69
2023-05-10T00:06:27.051Z,93622.06
2023-05-10T00:08:53.690Z,93622.47
2023-05-10T00:11:22.985Z,93621.34
2023-05-10T00:13:49.949Z,93616.22
2023-05-10T00:16:16.675Z,93613.41
2023-05-10T00:18:43.383Z,93614.13
2023-05-10T00:21:10.088Z,93609.88
2023-05-10T00:23:36.721Z,93609.50
2023-05-10T00:26:03.374Z,93600.19
2023-05-10T00:28:30.387Z,93609.28
2023-05-10T00:30:57.265Z,93606.28
2023-05-10T00:33:24.030Z,93609.41
2023-05-10T00:35:50.793Z,93597.75
2023-05-10T00:38:17.445Z,93611.19
2023-05-10T00:40:44.101Z,93613.53
2023-05-10T00:43:18.899Z,93612.34
2023-05-10T00:45:48.174Z,93615.38
2023-05-10T00:48:14.999Z,93609.16
2023-05-10T00:50:42.100Z,93610.00
2023-05-10T00:53:09.921Z,93615.38
2023-05-10T00:55:36.828Z,93623.03
2023-05-10T00:58:03.713Z,93607.53
2023-05-10T01:00:30.803Z,93613.81
2023-05-10T01:02:57.912Z,93615.38
2023-05-10T01:05:24.681Z,93610.72
2023-05-10T01:07:52.014Z,93610.22
2023-05-10T01:10:19.498Z,93609.56
2023-05-10T01:12:48.482Z,93620.81
2023-05-10T01:15:16.973Z,93620.06
2023-05-10T01:17:48.293Z,93615.09
2023-05-10T01:20:16.510Z,93613.88
2023-05-10T01:22:50.962Z,93615.09
2023-05-10T01:25:38.414Z,93618.56
2023-05-10T01:28:26.772Z,93610.91
2023-05-10T01:31:15.316Z,93616.66
2023-05-10T01:33:55.951Z,93627.28
2023-05-10T01:36:28.637Z,93622.69
2023-05-10T01:39:15.368Z,93625.63
2023-05-10T01:42:04.575Z,93628.25
2023-05-10T01:44:43.936Z,93632.25
2023-05-10T01:47:34.539Z,93645.16
2023-05-10T01:50:05.199Z,93639.34
2023-05-10T01:52:36.714Z,93645.16
2023-05-10T01:55:07.308Z,93646.50
2023-05-10T01:57:37.966Z,93644.78
2023-05-10T02:00:05.766Z,93650.16
2023-05-10T02:02:45.311Z,93663.97
2023-05-10T02:05:14.613Z,93651.84
2023-05-10T02:07:42.583Z,93654.38
2023-05-10T02:10:11.048Z,93648.38
2023-05-10T02:12:41.999Z,93664.09
2023-05-10T02:15:10.582Z,93653.53
2023-05-10T02:17:38.771Z,93662.44
2023-05-10T02:20:07.448Z,93662.38
2023-05-10T02:22:37.023Z,93665.53
2023-05-10T02:25:04.855Z,93665.41
2023-05-10T02:27:32.660Z,93666.81
2023-05-10T02:30:00.006Z,93672.53
2023-05-10T02:32:28.666Z,93671.84
2023-05-10T02:34:58.127Z,93674.88
2023-05-10T02:37:26.381Z,93668.13
2023-05-10T02:39:55.230Z,93682.13
2023-05-10T02:42:27.152Z,93684.03
2023-05-10T02:45:02.073Z,93675.25
2023-05-10T02:47:29.802Z,93680.75
2023-05-10T02:49:56.810Z,93679.56
2023-05-10T02:52:29.943Z,93677.56
2023-05-10T02:55:04.129Z,93684.16
2023-05-10T02:57:34.924Z,93687.56
2023-05-10T03:00:04.257Z,93684.44
2023-05-10T03:02:32.022Z,93675.34
2023-05-10T03:04:59.794Z,93693.53
2023-05-10T03:07:27.043Z,93688.84
2023-05-10T03:09:53.789Z,93678.72
2023-05-10T03:12:48.774Z,93692.66
2023-05-10T03:15:41.671Z,93686.09
2023-05-10T03:18:12.045Z,93693.09
2023-05-10T03:20:48.240Z,93691.88
2023-05-10T03:23:23.864Z,93690.34
2023-05-10T03:25:51.745Z,93696.56
2023-05-10T03:28:20.069Z,93693.00
2023-05-10T03:30:47.736Z,93680.91
2023-05-10T03:33:15.214Z,93704.88
2023-05-10T03:35:46.888Z,93701.06
2023-05-10T03:38:14.687Z,93690.34
2023-05-10T03:40:41.678Z,93696.47
2023-05-10T03:43:09.077Z,93699.84
2023-05-10T03:45:35.807Z,93702.19
2023-05-10T03:48:03.383Z,93700.72
2023-05-10T03:50:30.254Z,93701.41
2023-05-10T03:52:56.996Z,93702.47
2023-05-10T03:55:23.872Z,93703.88
2023-05-10T03:57:51.233Z,93705.44
2023-05-10T04:00:18.517Z,93707.81
2023-05-10T04:02:48.134Z,93714.75
2023-05-10T04:05:19.013Z,93723.59
2023-05-10T04:07:45.723Z,93718.56
2023-05-10T04:10:12.743Z,93711.72
2023-05-10T04:12:39.458Z,93712.75
2023-05-10T04:15:07.555Z,93715.88
2023-05-10T04:17:34.357Z,93720.22
2023-05-10T04:20:01.115Z,93721.34
2023-05-10T04:22:28.898Z,93726.72
2023-05-10T04:24:55.765Z,93721.69
2023-05-10T04:27:22.492Z,93723.09
2023-05-10T04:29:49.461Z,93713.91
2023-05-10T04:32:17.356Z,93730.88
2023-05-10T04:34:44.981Z,93726.81
2023-05-10T04:37:11.603Z,93723.34
2023-05-10T04:39:40.180Z,93725.06
2023-05-10T04:42:08.235Z,93733.91
2023-05-10T04:44:34.993Z,93728.00
2023-05-10T04:47:03.246Z,93740.31
2023-05-10T04:49:30.765Z,93735.72
2023-05-10T04:51:57.360Z,93743.53
2023-05-10T04:54:24.059Z,93741.34
2023-05-10T04:56:50.686Z,93741.84
2023-05-10T04:59:17.351Z,93735.63
2023-05-10T05:01:44.347Z,93752.34
2023-05-10T05:04:11.030Z,93732.22
2023-05-10T05:06:37.648Z,93743.41
2023-05-10T05:09:04.314Z,93756.25
2023-05-10T05:11:30.969Z,93754.34
2023-05-10T05:13:59.999Z,93754.03
2023-05-10T05:16:27.255Z,93760.81
2023-05-10T05:18:54.110Z,93763.22
2023-05-10T05:21:21.395Z,93769.91
2023-05-10T05:23:48.055Z,93746.16
2023-05-10T05:26:16.065Z,93764.34
2023-05-10T05:28:42.884Z,93766.25
2023-05-10T05:31:10.244Z,93764.53
2023-05-10T05:33:37.553Z,93770.50
2023-05-10T05:36:07.470Z,93765.53
2023-05-10T05:38:34.144Z,93768.31
2023-05-10T05:41:00.937Z,93777.28
2023-05-10T05:43:27.616Z,93768.88
2023-05-10T05:45:55.045Z,93775.91
2023-05-10T05:48:22.075Z,93773.47
2023-05-10T05:50:48.865Z,93772.22
2023-05-10T05:53:15.673Z,93770.16
2023-05-10T05:55:59.283Z,93782.69
2023-05-10T05:58:26.936Z,93789.00
2023-05-10T06:00:54.558Z,93783.88
2023-05-10T06:03:21.752Z,93794.28
2023-05-10T06:05:48.755Z,93800.19
2023-05-10T06:08:15.527Z,93791.25
2023-05-10T06:10:42.281Z,93778.59
2023-05-10T06:13:08.992Z,93800.97
2023-05-10T06:15:35.748Z,93800.09
2023-05-10T06:18:02.549Z,93794.63
2023-05-10T06:20:29.201Z,93791.53
2023-05-10T06:22:56.058Z,93793.59
2023-05-10T06:25:22.680Z,93806.00
2023-05-10T06:27:53.475Z,93810.41
2023-05-10T06:30:21.322Z,93813.09
2023-05-10T06:32:48.103Z,93820.44
2023-05-10T06:35:14.967Z,93819.31
2023-05-10T06:37:42.031Z,93818.47
2023-05-10T06:40:09.052Z,93821.22
2023-05-10T06:42:35.711Z,93816.59
2023-05-10T06:45:03.468Z,93833.00
2023-05-10T06:47:30.231Z,93816.41
2023-05-10T06:49:56.948Z,93830.50
2023-05-10T06:52:24.431Z,93831.25
2023-05-10T06:54:51.092Z,93837.88
2023-05-10T06:57:30.650Z,93833.22
2023-05-10T06:59:59.496Z,93836.31
2023-05-10T07:02:26.321Z,93833.59
2023-05-10T07:04:53.499Z,93844.81
2023-05-10T07:07:20.329Z,93839.81
2023-05-10T07:09:47.111Z,93828.38
2023-05-10T07:12:15.246Z,93842.34
2023-05-10T07:14:43.086Z,93839.22
2023-05-10T07:17:10.924Z,93849.06
2023-05-10T07:19:37.750Z,93840.84
2023-05-10T07:22:04.451Z,93837.53
2023-05-10T07:24:32.301Z,93849.56
2023-05-10T07:26:59.064Z,93850.22
2023-05-10T07:29:25.948Z,93856.22
2023-05-10T07:31:52.737Z,93860.28
2023-05-10T07:34:19.392Z,93859.41
2023-05-10T07:36:46.133Z,93862.59
2023-05-10T07:39:16.439Z,93859.41
2023-05-10T07:41:51.297Z,93852.06
2023-05-10T07:44:20.134Z,93838.31
2023-05-10T07:46:47.398Z,93860.59
2023-05-10T07:49:14.223Z,93866.00
2023-05-10T07:51:41.154Z,93866.19
2023-05-10T07:54:07.755Z,93856.84
2023-05-10T07:56:35.544Z,93865.06
2023-05-10T07:59:09.255Z,93867.47
2023-05-10T08:01:36.968Z,93854.34
2023-05-10T08:04:03.735Z,93847.47
2023-05-10T08:06:31.275Z,93849.91
2023-05-10T08:08:58.180Z,93853.84
2023-05-10T08:11:24.844Z,93858.31
2023-05-10T08:13:52.540Z,93859.69
2023-05-10T08:16:19.330Z,93867.00
2023-05-10T08:18:47.987Z,93871.81
2023-05-10T08:21:15.965Z,93871.50
2023-05-10T08:23:44.824Z,93868.44
2023-05-10T08:26:11.991Z,93872.75
2023-05-10T08:28:38.674Z,93867.88
2023-05-10T08:31:06.211Z,93867.41
2023-05-10T08:33:33.078Z,93867.13
2023-05-10T08:35:59.898Z,93870.69
2023-05-10T08:38:27.021Z,93878.59
2023-05-10T08:40:57.976Z,93887.63
2023-05-10T08:43:30.283Z,93881.81
2023-05-10T08:45:57.839Z,93884.63
2023-05-10T08:48:26.039Z,93879.59
2023-05-10T08:50:57.633Z,93880.59
2023-05-10T08:53:28.673Z,93887.00
2023-05-10T08:55:56.578Z,93884.50
2023-05-10T08:58:23.364Z,93878.91
2023-05-10T09:00:53.467Z,93888.25
2023-05-10T09:03:20.150Z,93888.53
2023-05-10T09:05:47.409Z,93891.34
2023-05-10T09:08:16.758Z,93899.22
2023-05-10T09:10:48.608Z,93898.91
2023-05-10T09:13:16.591Z,93897.38
2023-05-10T09:15:46.073Z,93903.81
2023-05-10T09:18:13.508Z,93908.09
2023-05-10T09:20:40.521Z,93912.13
2023-05-10T09:23:07.937Z,93905.22
2023-05-10T09:25:34.907Z,93908.06
2023-05-10T09:28:01.696Z,93902.19
2023-05-10T09:30:32.267Z,93910.09
2023-05-10T09:33:00.728Z,93904.31
2023-05-10T09:35:30.335Z,93900.59
2023-05-10T09:37:59.102Z,93898.31
2023-05-10T09:40:27.861Z,93898.56
2023-05-10T09:42:57.089Z,93901.22
2023-05-10T09:45:25.555Z,93904.31
2023-05-10T09:47:52.625Z,93894.34
2023-05-10T09:50:21.420Z,93898.13
2023-05-10T09:52:53.416Z,93897.31
2023-05-10T09:55:20.950Z,93895.00
2023-05-10T09:57:49.194Z,93894.97
2023-05-10T10:00:21.053Z,93904.94
2023-05-10T10:02:55.257Z,93894.06
2023-05-10T10:05:22.100Z,93897.34
2023-05-10T10:07:50.283Z,93890.78
2023-05-10T10:10:17.279Z,93888.06
2023-05-10T10:12:44.143Z,93886.09
2023-05-10T10:15:11.565Z,93890.72
2023-05-10T10:17:40.003Z,93893.78
2023-05-10T10:20:09.892Z,93892.59
2023-05-10T10:22:38.498Z,93887.59
2023-05-10T10:25:09.526Z,93892.28
2023-05-10T10:27:54.425Z,93894.38
2023-05-10T10:30:32.483Z,93897.94
2023-05-10T10:32:59.139Z,93892.44
2023-05-10T10:35:26.042Z,93902.19
2023-05-10T10:37:52.714Z,93902.28
2023-05-10T10:40:27.804Z,93895.69
2023-05-10T10:42:55.737Z,93897.53
2023-05-10T10:45:23.410Z,93900.78
2023-05-10T10:47:54.482Z,93905.31
2023-05-10T10:50:21.165Z,93905.63
2023-05-10T10:52:50.474Z,93920.91
2023-05-10T10:55:26.037Z,93913.66
2023-05-10T10:58:01.636Z,93912.41
2023-05-10T11:00:32.437Z,93912.22
2023-05-10T11:02:59.240Z,93921.25
2023-05-10T11:05:33.964Z,93923.34
2023-05-10T11:08:01.625Z,93921.03
2023-05-10T11:10:28.510Z,93920.63
2023-05-10T11:13:02.101Z,93918.78
2023-05-10T11:15:31.960Z,93913.13
2023-05-10T11:17:58.989Z,93917.75
2023-05-10T11:20:34.288Z,93923.72
2023-05-10T11:23:19.169Z,93920.31
2023-05-10T11:25:46.965Z,93919.91
2023-05-10T11:28:14.142Z,93923.31
2023-05-10T11:30:41.838Z,93918.59
2023-05-10T11:33:09.938Z,93922.84
2023-05-10T11:35:43.167Z,93917.25
2023-05-10T11:38:14.369Z,93923.56
2023-05-10T11:40:42.032Z,93919.16
2023-05-10T11:43:11.233Z,93919.75
2023-05-10T11:45:38.193Z,93925.03
2023-05-10T11:48:05.293Z,93920.44
2023-05-10T11:50:32.100Z,93931.94
2023-05-10T11:52:59.813Z,93924.25
2023-05-10T11:55:26.568Z,93922.63
2023-05-10T11:57:54.514Z,93924.56
2023-05-10T12:00:21.570Z,93924.69
2023-05-10T12:02:49.399Z,93928.59
2023-05-10T12:05:16.437Z,93928.59
2023-05-10T12:07:43.326Z,93930.91
2023-05-10T12:10:15.504Z,93928.28
2023-05-10T12:12:44.357Z,93930.91
2023-05-10T12:15:17.637Z,93930.72
2023-05-10T12:17:45.735Z,93926.28
2023-05-10T12:20:21.208Z,93929.94
2023-05-10T12:22:52.622Z,93936.16
2023-05-10T12:25:21.339Z,93933.00
2023-05-10T12:27:58.913Z,93925.63
2023-05-10T12:30:27.524Z,93936.16
2023-05-10T12:32:55.697Z,93940.78
2023-05-10T12:35:23.070Z,93934.06
2023-05-10T12:37:49.704Z,93939.41
2023-05-10T12:40:16.797Z,93930.28
2023-05-10T12:42:45.855Z,93940.78
2023-05-10T12:45:12.944Z,93947.75
2023-05-10T12:47:42.188Z,93952.84
2023-05-10T12:50:11.403Z,93952.47
2023-05-10T12:52:38.291Z,93967.34
2023-05-10T12:55:05.428Z,93972.31
2023-05-10T12:57:32.139Z,93984.22
2023-05-10T12:59:58.806Z,93981.69
2023-05-10T13:02:25.533Z,93977.16
2023-05-10T13:04:52.281Z,93987.13
2023-05-10T13:07:19.009Z,93985.06
2023-05-10T13:09:45.790Z,93982.41
2023-05-10T13:12:12.485Z,93981.59
2023-05-10T13:14:41.346Z,93984.72
2023-05-10T13:17:08.262Z,93986.75
2023-05-10T13:19:34.992Z,93987.69
2023-05-10T13:22:01.784Z,93994.09
2023-05-10T13:24:28.531Z,93997.66
2023-05-10T13:26:55.212Z,93985.25
2023-05-10T13:29:23.488Z,93979.13
2023-05-10T13:31:50.434Z,93983.59
2023-05-10T13:34:17.324Z,93996.47
2023-05-10T13:36:44.003Z,93985.97
2023-05-10T13:39:10.627Z,93986.31
2023-05-10T13:41:38.102Z,93979.47
2023-05-10T13:44:04.844Z,93982.84
2023-05-10T13:46:32.033Z,93984.63
2023-05-10T13:48:58.738Z,93982.13
2023-05-10T13:51:25.541Z,93982.06
2023-05-10T13:53:53.113Z,93970.31
2023-05-10T13:56:19.776Z,93977.91
2023-05-10T13:58:46.492Z,93973.66
2023-05-10T14:01:13.317Z,93972.13
2023-05-10T14:03:40.500Z,93970.50
2023-05-10T14:06:08.490Z,93967.63
2023-05-10T14:08:36.529Z,93968.88
2023-05-10T14:11:03.662Z,93966.19
2023-05-10T14:13:30.588Z,93968.31
2023-05-10T14:15:57.401Z,93972.66
2023-05-10T14:18:24.217Z,93966.84
2023-05-10T14:20:50.923Z,93966.59
2023-05-10T14:23:17.697Z,93964.59
2023-05-10T14:25:44.527Z,93966.81
2023-05-10T14:28:11.259Z,93964.22
2023-05-10T14:30:38.008Z,93951.22
2023-05-10T14:33:04.946Z,93951.88
2023-05-10T14:35:34.459Z,93955.72
2023-05-10T14:38:01.541Z,93957.88
2023-05-10T14:40:28.477Z,93963.22
2023-05-10T14:42:55.335Z,93965.13
2023-05-10T14:45:22.323Z,93954.38
2023-05-10T14:47:49.339Z,93966.69
2023-05-10T14:50:32.421Z,93963.06
2023-05-10T14:53:03.034Z,93967.09
2023-05-10T14:55:29.977Z,93975.47
2023-05-10T14:57:57.282Z,93966.25
2023-05-10T15:00:24.002Z,93974.72
2023-05-10T15:02:51.146Z,93970.44
2023-05-10T15:05:18.708Z,93972.34
2023-05-10T15:07:46.084Z,93975.28
2023-05-10T15:10:12.868Z,93966.09
2023-05-10T15:12:39.592Z,93969.09
2023-05-10T15:15:07.401Z,93967.69
2023-05-10T15:17:34.647Z,93962.22
2023-05-10T15:20:04.081Z,93969.53
2023-05-10T15:22:34.372Z,93979.06
2023-05-10T15:25:01.312Z,93983.72
2023-05-10T15:27:28.026Z,93978.31
2023-05-10T15:29:54.740Z,93980.22
2023-05-10T15:32:21.436Z,93985.00
2023-05-10T15:34:48.218Z,93973.22
2023-05-10T15:37:14.899Z,93981.22
2023-05-10T15:39:41.578Z,93989.66
2023-05-10T15:42:08.290Z,93980.03
2023-05-10T15:44:36.100Z,93971.34
2023-05-10T15:47:03.897Z,93981.84
2023-05-10T15:49:30.769Z,93994.19
2023-05-10T15:51:57.517Z,93983.88
2023-05-10T15:54:24.200Z,93999.34
2023-05-10T15:56:50.847Z,93994.31
2023-05-10T15:59:17.456Z,93996.81
2023-05-10T16:01:44.415Z,94001.00
2023-05-10T16:04:11.152Z,93999.16
2023-05-10T16:06:38.012Z,93995.59
2023-05-10T16:09:04.817Z,93996.81
2023-05-10T16:11:31.497Z,94000.28
2023-05-10T16:13:58.249Z,93993.44
2023-05-10T16:16:25.072Z,93998.13
2023-05-10T16:18:52.449Z,94003.22
2023-05-10T16:21:19.203Z,93995.34
2023-05-10T16:23:46.640Z,93995.44
2023-05-10T16:26:13.368Z,93999.44
2023-05-10T16:28:41.001Z,93998.72
2023-05-10T16:31:08.221Z,93996.13
2023-05-10T16:33:35.288Z,93998.47
2023-05-10T16:36:01.956Z,94000.66
2023-05-10T16:38:28.726Z,94011.75
2023-05-10T16:40:57.282Z,94005.16
2023-05-10T16:43:25.864Z,94002.03
2023-05-10T16:45:52.901Z,94010.09
2023-05-10T16:48:19.609Z,94003.34
2023-05-10T16:50:46.649Z,94008.06
2023-05-10T16:53:13.428Z,94007.97
2023-05-10T16:55:40.082Z,94000.50
2023-05-10T16:58:06.832Z,94000.84
2023-05-10T17:00:33.690Z,94008.22
2023-05-10T17:03:00.515Z,94012.72
2023-05-10T17:05:27.286Z,94006.91
2023-05-10T17:07:53.993Z,94014.53
2023-05-10T17:10:20.787Z,94021.91
2023-05-10T17:12:47.770Z,94010.03
2023-05-10T17:15:16.666Z,94013.75
2023-05-10T17:17:45.264Z,94008.66
2023-05-10T17:20:12.322Z,94012.81
2023-05-10T17:22:39.095Z,94014.97
2023-05-10T17:25:06.329Z,94010.53
2023-05-10T17:27:32.958Z,94007.94
2023-05-10T17:29:59.734Z,94012.63
2023-05-10T17:32:26.565Z,94011.06
2023-05-10T17:34:53.300Z,94003.00
2023-05-10T17:37:20.198Z,94017.44
2023-05-10T17:39:47.015Z,94014.38
2023-05-10T17:42:16.317Z,94025.84
2023-05-10T17:44:43.602Z,94021.16
2023-05-10T17:47:10.449Z,94014.81
2023-05-10T17:49:37.131Z,94022.44
2023-05-10T17:52:03.894Z,94016.25
2023-05-10T17:54:30.602Z,94016.72
2023-05-10T17:56:58.214Z,94017.50
2023-05-10T17:59:24.941Z,94018.63
2023-05-10T18:01:51.686Z,94020.97
2023-05-10T18:04:18.414Z,94022.44
2023-05-10T18:06:45.136Z,94015.66
2023-05-10T18:09:11.864Z,94018.34
2023-05-10T18:11:39.465Z,94022.50
2023-05-10T18:14:06.239Z,94020.38
2023-05-10T18:16:32.974Z,94028.72
2023-05-10T18:18:59.757Z,94022.38
2023-05-10T18:21:26.598Z,94022.50
2023-05-10T18:23:53.299Z,94027.63
2023-05-10T18:26:19.997Z,94030.66
2023-05-10T18:28:46.773Z,94014.97
2023-05-10T18:31:13.482Z,94030.47
2023-05-10T18:33:40.221Z,94029.16
2023-05-10T18:36:07.500Z,94037.50
2023-05-10T18:38:34.444Z,94036.63
2023-05-10T18:41:01.116Z,94033.09
2023-05-10T18:43:27.808Z,94036.19
2023-05-10T18:45:54.524Z,94038.97
2023-05-10T18:48:21.202Z,94038.53
2023-05-10T18:50:48.457Z,94040.03
2023-05-10T18:53:15.131Z,94036.19
2023-05-10T18:55:41.751Z,94042.28
2023-05-10T18:58:08.385Z,94039.38
2023-05-10T19:00:35.029Z,94029.03
2023-05-10T19:03:01.806Z,94042.13
2023-05-10T19:05:30.387Z,94036.78
2023-05-10T19:07:57.116Z,94042.78
2023-05-10T19:10:24.037Z,94040.44
2023-05-10T19:12:50.811Z,94034.09
2023-05-10T19:15:19.256Z,94049.97
2023-05-10T19:17:47.624Z,94038.56
2023-05-10T19:20:16.610Z,94047.28
2023-05-10T19:22:58.142Z,94061.38
2023-05-10T19:25:30.169Z,94041.25
2023-05-10T19:27:57.922Z,94055.69
2023-05-10T19:30:25.573Z,94050.44
2023-05-10T19:32:52.430Z,94057.63
2023-05-10T19:35:19.362Z,94052.94
2023-05-10T19:37:47.279Z,94052.03
2023-05-10T19:40:17.498Z,94064.63
2023-05-10T19:42:44.311Z,94064.41
2023-05-10T19:45:12.040Z,94066.19
2023-05-10T19:47:38.856Z,94065.75
2023-05-10T19:50:07.160Z,94056.13
2023-05-10T19:52:33.823Z,94059.16
2023-05-10T19:55:00.479Z,94060.19
2023-05-10T19:57:27.517Z,94059.31
2023-05-10T19:59:54.201Z,94058.53
2023-05-10T20:02:21.012Z,94059.75
2023-05-10T20:04:47.639Z,94060.66
2023-05-10T20:07:14.373Z,94060.06
2023-05-10T20:09:42.728Z,94056.84
2023-05-10T20:12:09.542Z,94062.41
2023-05-10T20:14:36.490Z,94064.97
2023-05-10T20:17:03.266Z,94060.97
2023-05-10T20:19:29.963Z,94074.28
2023-05-10T20:21:58.771Z,94071.50
2023-05-10T20:24:25.667Z,94068.16
2023-05-10T20:26:52.413Z,94076.66
2023-05-10T20:29:19.094Z,94076.75
2023-05-10T20:31:45.843Z,94068.00
2023-05-10T20:34:12.623Z,94061.16
2023-05-10T20:36:39.631Z,94061.28
2023-05-10T20:39:06.429Z,94063.28
2023-05-10T20:41:33.557Z,94064.97
2023-05-10T20:44:00.665Z,94067.66
2023-05-10T20:46:27.548Z,94064.19
2023-05-10T20:48:54.742Z,94062.94
2023-05-10T20:51:21.506Z,94060.16
2023-05-10T20:53:48.291Z,94056.00
2023-05-10T20:56:15.216Z,94053.78
2023-05-10T20:58:42.294Z,94058.38
2023-05-10T21:01:09.488Z,94058.69
2023-05-10T21:03:36.433Z,94055.56
2023-05-10T21:06:03.196Z,94043.03
2023-05-10T21:08:30.002Z,94057.47
2023-05-10T21:10:56.846Z,94054.44
2023-05-10T21:13:23.841Z,94053.31
2023-05-10T21:15:50.665Z,94040.47
2023-05-10T21:18:17.545Z,94053.31
2023-05-10T21:20:44.434Z,94054.00
2023-05-10T21:23:11.243Z,94048.63
2023-05-10T21:25:38.281Z,94050.09
2023-05-10T21:28:05.336Z,94048.53
2023-05-10T21:30:32.986Z,94043.16
2023-05-10T21:33:00.114Z,94042.19
2023-05-10T21:35:26.817Z,94042.97
2023-05-10T21:37:53.773Z,94026.97
2023-05-10T21:40:20.947Z,94043.31
2023-05-10T21:42:50.638Z,94040.63
2023-05-10T21:45:19.662Z,94036.38
2023-05-10T21:47:46.501Z,94038.59
2023-05-10T21:50:13.455Z,94045.53
2023-05-10T21:52:40.114Z,94042.84
2023-05-10T21:55:08.719Z,94039.50
2023-05-10T21:57:36.358Z,94037.50
2023-05-10T22:00:03.787Z,94038.16
2023-05-10T22:02:31.408Z,94037.81
2023-05-10T22:04:58.576Z,94034.25
2023-05-10T22:07:25.428Z,94035.03
2023-05-10T22:09:52.144Z,94030.69
2023-05-10T22:12:18.829Z,94037.28
2023-05-10T22:14:45.485Z,94035.72
2023-05-10T22:17:12.397Z,94034.59
2023-05-10T22:19:39.290Z,94033.34
2023-05-10T22:22:05.936Z,94029.44
2023-05-10T22:24:32.730Z,94029.78
2023-05-10T22:26:59.535Z,94032.38
2023-05-10T22:29:26.160Z,94028.38
2023-05-10T22:31:52.813Z,94032.94
2023-05-10T22:34:19.477Z,94046.03
2023-05-10T22:36:46.709Z,94035.41
2023-05-10T22:39:13.354Z,94039.66
2023-05-10T22:41:40.167Z,94046.13
2023-05-10T22:44:06.927Z,94048.50
2023-05-10T22:46:33.740Z,94035.63
2023-05-10T22:49:00.542Z,94046.03
2023-05-10T22:51:27.388Z,94043.00
2023-05-10T22:53:54.098Z,94046.81
2023-05-10T22:56:22.029Z,94051.84
2023-05-10T22:58:49.716Z,94041.22
2023-05-10T23:01:16.504Z,94052.75
2023-05-10T23:03:43.270Z,94042.78
2023-05-10T23:06:10.112Z,94043.56
2023-05-10T23:08:36.775Z,94045.13
2023-05-10T23:11:03.607Z,94047.38
2023-05-10T23:13:30.420Z,94041.22
2023-05-10T23:15:57.392Z,94035.41
2023-05-10T23:18:24.170Z,94051.28
2023-05-10T23:20:50.837Z,94048.94
2023-05-10T23:23:17.604Z,94054.75
2023-05-10T23:25:44.378Z,94050.06
2023-05-10T23:28:11.184Z,94053.28
2023-05-10T23:30:37.863Z,94054.09
2023-05-10T23:33:04.825Z,94060.34
2023-05-10T23:35:31.625Z,94044.81
2023-05-10T23:37:58.348Z,94060.22
2023-05-10T23:40:25.137Z,94048.19
2023-05-10T23:42:51.940Z,94047.06
2023-05-10T23:45:18.637Z,94043.16
2023-05-10T23:47:45.374Z,94050.31
2023-05-10T23:50:12.144Z,94040.56
2023-05-10T23:52:38.776Z,94040.13
2023-05-10T23:55:05.787Z,94052.97
2023-05-10T23:57:32.422Z,94052.31
2023-05-10T23:59:59.140Z,94046.28
